sensor_id;sensor_type;location;lat;lon;timestamp;temperature;humidity
3134;DHT22;1577;49.912;10.924;2023-12-28T00:00:27;5.60;99.90
3134;DHT22;1577;49.912;10.924;2023-12-28T00:02:53;5.60;99.90
3134;DHT22;1577;49.912;10.924;2023-12-28T00:05:19;5.70;99.90
3134;DHT22;1577;49.912;10.924;2023-12-28T00:07:44;5.60;99.90
3134;DHT22;1577;49.912;10.924;2023-12-28T00:10:10;5.60;99.90
3134;DHT22;1577;49.912;10.924;2023-12-28T00:12:35;5.60;99.90
3134;DHT22;1577;49.912;10.924;2023-12-28T00:15:01;5.60;99.90
3134;DHT22;1577;49.912;10.924;2023-12-28T00:17:27;5.60;99.90
3134;DHT22;1577;49.912;10.924;2023-12-28T00:19:52;5.60;99.90
3134;DHT22;1577;49.912;10.924;2023-12-28T00:22:18;5.60;99.90
3134;DHT22;1577;49.912;10.924;2023-12-28T00:24:43;5.60;99.90
3134;DHT22;1577;49.912;10.924;2023-12-28T00:27:09;5.60;99.90
3134;DHT22;1577;49.912;10.924;2023-12-28T00:29:35;5.70;99.90
3134;DHT22;1577;49.912;10.924;2023-12-28T00:32:05;5.70;99.90
3134;DHT22;1577;49.912;10.924;2023-12-28T00:34:30;5.60;99.90
3134;DHT22;1577;49.912;10.924;2023-12-28T00:36:56;5.60;99.90
3134;DHT22;1577;49.912;10.924;2023-12-28T00:39:21;5.60;99.90
3134;DHT22;1577;49.912;10.924;2023-12-28T00:41:47;5.50;99.90
3134;DHT22;1577;49.912;10.924;2023-12-28T00:44:13;5.50;99.90
3134;DHT22;1577;49.912;10.924;2023-12-28T00:46:38;5.50;99.90
3134;DHT22;1577;49.912;10.924;2023-12-28T00:49:04;5.40;99.90
3134;DHT22;1577;49.912;10.924;2023-12-28T00:51:29;5.40;99.90
3134;DHT22;1577;49.912;10.924;2023-12-28T00:53:55;5.40;99.90
3134;DHT22;1577;49.912;10.924;2023-12-28T00:56:21;5.30;99.90
3134;DHT22;1577;49.912;10.924;2023-12-28T00:58:46;5.30;99.90
3134;DHT22;1577;49.912;10.924;2023-12-28T01:01:12;5.30;99.90
3134;DHT22;1577;49.912;10.924;2023-12-28T01:03:37;5.30;99.90
3134;DHT22;1577;49.912;10.924;2023-12-28T01:06:05;5.30;99.90
3134;DHT22;1577;49.912;10.924;2023-12-28T01:08:30;5.30;99.90
3134;DHT22;1577;49.912;10.924;2023-12-28T01:10:56;5.20;99.90
3134;DHT22;1577;49.912;10.924;2023-12-28T01:13:21;5.20;99.90
3134;DHT22;1577;49.912;10.924;2023-12-28T01:15:47;5.20;99.90
3134;DHT22;1577;49.912;10.924;2023-12-28T01:18:13;5.30;99.90
3134;DHT22;1577;49.912;10.924;2023-12-28T01:20:38;5.30;99.90
3134;DHT22;1577;49.912;10.924;2023-12-28T01:23:04;5.20;99.90
3134;DHT22;1577;49.912;10.924;2023-12-28T01:25:29;5.20;99.90
3134;DHT22;1577;49.912;10.924;2023-12-28T01:27:55;5.10;99.90
3134;DHT22;1577;49.912;10.924;2023-12-28T01:30:20;5.10;99.90
3134;DHT22;1577;49.912;10.924;2023-12-28T01:32:46;5.10;99.90
3134;DHT22;1577;49.912;10.924;2023-12-28T01:35:11;5.00;99.90
3134;DHT22;1577;49.912;10.924;2023-12-28T01:37:37;4.90;99.90
3134;DHT22;1577;49.912;10.924;2023-12-28T01:40:03;4.90;99.90
3134;DHT22;1577;49.912;10.924;2023-12-28T01:42:29;4.90;99.90
3134;DHT22;1577;49.912;10.924;2023-12-28T01:44:56;4.90;99.90
3134;DHT22;1577;49.912;10.924;2023-12-28T01:47:23;4.90;99.90
3134;DHT22;1577;49.912;10.924;2023-12-28T01:49:49;4.80;99.90
3134;DHT22;1577;49.912;10.924;2023-12-28T01:52:15;4.80;99.90
3134;DHT22;1577;49.912;10.924;2023-12-28T01:54:41;4.70;99.90
3134;DHT22;1577;49.912;10.924;2023-12-28T01:57:06;4.70;99.90
3134;DHT22;1577;49.912;10.924;2023-12-28T01:59:33;4.80;99.90
3134;DHT22;1577;49.912;10.924;2023-12-28T02:01:58;4.70;99.90
3134;DHT22;1577;49.912;10.924;2023-12-28T02:04:24;4.80;99.90
3134;DHT22;1577;49.912;10.924;2023-12-28T02:06:57;4.70;99.90
3134;DHT22;1577;49.912;10.924;2023-12-28T02:09:24;4.70;99.90
3134;DHT22;1577;49.912;10.924;2023-12-28T02:11:49;4.70;99.90
3134;DHT22;1577;49.912;10.924;2023-12-28T02:14:15;4.70;99.90
3134;DHT22;1577;49.912;10.924;2023-12-28T02:16:46;4.70;99.90
3134;DHT22;1577;49.912;10.924;2023-12-28T02:19:31;4.60;99.90
3134;DHT22;1577;49.912;10.924;2023-12-28T02:21:59;4.50;99.90
3134;DHT22;1577;49.912;10.924;2023-12-28T02:24:25;4.60;99.90
3134;DHT22;1577;49.912;10.924;2023-12-28T02:26:50;4.70;99.90
3134;DHT22;1577;49.912;10.924;2023-12-28T02:29:16;4.60;99.90
3134;DHT22;1577;49.912;10.924;2023-12-28T02:32:00;4.70;99.90
3134;DHT22;1577;49.912;10.924;2023-12-28T02:34:32;4.70;99.90
3134;DHT22;1577;49.912;10.924;2023-12-28T02:37:01;4.70;99.90
3134;DHT22;1577;49.912;10.924;2023-12-28T02:39:28;4.80;99.90
3134;DHT22;1577;49.912;10.924;2023-12-28T02:41:55;4.80;99.90
3134;DHT22;1577;49.912;10.924;2023-12-28T02:44:21;4.90;99.90
3134;DHT22;1577;49.912;10.924;2023-12-28T02:46:46;4.80;99.90
3134;DHT22;1577;49.912;10.924;2023-12-28T02:49:12;4.90;99.90
3134;DHT22;1577;49.912;10.924;2023-12-28T02:51:38;4.90;99.90
3134;DHT22;1577;49.912;10.924;2023-12-28T02:54:04;4.80;99.90
3134;DHT22;1577;49.912;10.924;2023-12-28T02:56:29;4.80;99.90
3134;DHT22;1577;49.912;10.924;2023-12-28T02:58:57;4.80;99.90
3134;DHT22;1577;49.912;10.924;2023-12-28T03:01:22;4.80;99.90
3134;DHT22;1577;49.912;10.924;2023-12-28T03:03:48;4.90;99.90
3134;DHT22;1577;49.912;10.924;2023-12-28T03:06:13;4.90;99.90
3134;DHT22;1577;49.912;10.924;2023-12-28T03:08:39;4.90;99.90
3134;DHT22;1577;49.912;10.924;2023-12-28T03:11:04;4.90;99.90
3134;DHT22;1577;49.912;10.924;2023-12-28T03:13:30;5.00;99.90
3134;DHT22;1577;49.912;10.924;2023-12-28T03:15:57;5.00;99.90
3134;DHT22;1577;49.912;10.924;2023-12-28T03:18:22;5.10;99.90
3134;DHT22;1577;49.912;10.924;2023-12-28T03:20:48;5.10;99.90
3134;DHT22;1577;49.912;10.924;2023-12-28T03:23:14;5.10;99.90
3134;DHT22;1577;49.912;10.924;2023-12-28T03:25:39;5.10;99.90
3134;DHT22;1577;49.912;10.924;2023-12-28T03:28:05;5.10;99.90
3134;DHT22;1577;49.912;10.924;2023-12-28T03:30:30;5.10;99.90
3134;DHT22;1577;49.912;10.924;2023-12-28T03:32:56;5.10;99.90
3134;DHT22;1577;49.912;10.924;2023-12-28T03:35:21;5.20;99.90
3134;DHT22;1577;49.912;10.924;2023-12-28T03:37:47;5.20;99.90
3134;DHT22;1577;49.912;10.924;2023-12-28T03:40:13;5.10;99.90
3134;DHT22;1577;49.912;10.924;2023-12-28T03:42:39;5.20;99.90
3134;DHT22;1577;49.912;10.924;2023-12-28T03:45:05;5.10;99.90
3134;DHT22;1577;49.912;10.924;2023-12-28T03:47:31;5.10;99.90
3134;DHT22;1577;49.912;10.924;2023-12-28T03:49:56;5.20;99.90
3134;DHT22;1577;49.912;10.924;2023-12-28T03:52:25;5.30;99.90
3134;DHT22;1577;49.912;10.924;2023-12-28T03:54:51;5.40;99.90
3134;DHT22;1577;49.912;10.924;2023-12-28T03:57:16;5.50;99.90
3134;DHT22;1577;49.912;10.924;2023-12-28T03:59:42;5.60;99.90
3134;DHT22;1577;49.912;10.924;2023-12-28T04:02:07;5.70;99.90
3134;DHT22;1577;49.912;10.924;2023-12-28T04:04:33;5.80;99.90
3134;DHT22;1577;49.912;10.924;2023-12-28T04:06:58;5.90;99.90
3134;DHT22;1577;49.912;10.924;2023-12-28T04:09:24;6.00;99.90
3134;DHT22;1577;49.912;10.924;2023-12-28T04:11:49;6.20;99.90
3134;DHT22;1577;49.912;10.924;2023-12-28T04:14:15;6.30;99.90
3134;DHT22;1577;49.912;10.924;2023-12-28T04:16:40;6.40;99.90
3134;DHT22;1577;49.912;10.924;2023-12-28T04:19:06;6.40;99.90
3134;DHT22;1577;49.912;10.924;2023-12-28T04:21:32;6.50;99.90
3134;DHT22;1577;49.912;10.924;2023-12-28T04:23:57;6.60;99.90
3134;DHT22;1577;49.912;10.924;2023-12-28T04:26:23;6.60;99.90
3134;DHT22;1577;49.912;10.924;2023-12-28T04:28:48;6.60;99.90
3134;DHT22;1577;49.912;10.924;2023-12-28T04:31:14;6.70;99.90
3134;DHT22;1577;49.912;10.924;2023-12-28T04:33:39;6.70;99.90
3134;DHT22;1577;49.912;10.924;2023-12-28T04:36:05;6.80;99.90
3134;DHT22;1577;49.912;10.924;2023-12-28T04:38:34;6.80;99.90
3134;DHT22;1577;49.912;10.924;2023-12-28T04:41:00;6.80;99.90
3134;DHT22;1577;49.912;10.924;2023-12-28T04:43:26;6.90;99.90
3134;DHT22;1577;49.912;10.924;2023-12-28T04:45:52;7.00;99.90
3134;DHT22;1577;49.912;10.924;2023-12-28T04:48:18;7.00;99.90
3134;DHT22;1577;49.912;10.924;2023-12-28T04:50:49;7.10;99.90
3134;DHT22;1577;49.912;10.924;2023-12-28T04:53:15;7.00;99.90
3134;DHT22;1577;49.912;10.924;2023-12-28T04:55:41;7.10;99.90
3134;DHT22;1577;49.912;10.924;2023-12-28T04:58:06;7.00;99.90
3134;DHT22;1577;49.912;10.924;2023-12-28T05:00:32;7.10;99.90
3134;DHT22;1577;49.912;10.924;2023-12-28T05:02:58;7.10;99.90
3134;DHT22;1577;49.912;10.924;2023-12-28T05:05:23;7.00;99.90
3134;DHT22;1577;49.912;10.924;2023-12-28T05:07:49;7.10;99.90
3134;DHT22;1577;49.912;10.924;2023-12-28T05:10:14;7.10;99.90
3134;DHT22;1577;49.912;10.924;2023-12-28T05:12:40;7.10;99.90
3134;DHT22;1577;49.912;10.924;2023-12-28T05:15:06;7.20;99.90
3134;DHT22;1577;49.912;10.924;2023-12-28T05:17:31;7.10;99.90
3134;DHT22;1577;49.912;10.924;2023-12-28T05:19:57;7.10;99.90
3134;DHT22;1577;49.912;10.924;2023-12-28T05:22:23;7.10;99.90
3134;DHT22;1577;49.912;10.924;2023-12-28T05:24:48;7.20;99.90
3134;DHT22;1577;49.912;10.924;2023-12-28T05:27:14;7.20;99.90
3134;DHT22;1577;49.912;10.924;2023-12-28T05:29:39;7.10;99.90
3134;DHT22;1577;49.912;10.924;2023-12-28T05:32:05;7.20;99.90
3134;DHT22;1577;49.912;10.924;2023-12-28T05:34:31;7.20;99.90
3134;DHT22;1577;49.912;10.924;2023-12-28T05:36:56;7.20;99.90
3134;DHT22;1577;49.912;10.924;2023-12-28T05:39:22;7.20;99.90
3134;DHT22;1577;49.912;10.924;2023-12-28T05:41:48;7.20;99.90
3134;DHT22;1577;49.912;10.924;2023-12-28T05:44:16;7.20;99.90
3134;DHT22;1577;49.912;10.924;2023-12-28T05:46:41;7.30;99.90
3134;DHT22;1577;49.912;10.924;2023-12-28T05:49:07;7.30;99.90
3134;DHT22;1577;49.912;10.924;2023-12-28T05:51:40;7.30;99.90
3134;DHT22;1577;49.912;10.924;2023-12-28T05:54:06;7.30;99.90
3134;DHT22;1577;49.912;10.924;2023-12-28T05:56:32;7.30;99.90
3134;DHT22;1577;49.912;10.924;2023-12-28T05:58:58;7.30;99.90
3134;DHT22;1577;49.912;10.924;2023-12-28T06:01:24;7.30;99.90
3134;DHT22;1577;49.912;10.924;2023-12-28T06:03:49;7.30;99.90
3134;DHT22;1577;49.912;10.924;2023-12-28T06:06:18;7.30;99.90
3134;DHT22;1577;49.912;10.924;2023-12-28T06:08:43;7.40;99.90
3134;DHT22;1577;49.912;10.924;2023-12-28T06:11:09;7.40;99.90
3134;DHT22;1577;49.912;10.924;2023-12-28T06:13:34;7.40;99.90
3134;DHT22;1577;49.912;10.924;2023-12-28T06:16:00;7.40;99.90
3134;DHT22;1577;49.912;10.924;2023-12-28T06:18:25;7.40;99.90
3134;DHT22;1577;49.912;10.924;2023-12-28T06:20:51;7.40;99.90
3134;DHT22;1577;49.912;10.924;2023-12-28T06:23:16;7.40;99.90
3134;DHT22;1577;49.912;10.924;2023-12-28T06:25:42;7.40;99.90
3134;DHT22;1577;49.912;10.924;2023-12-28T06:28:08;7.50;99.90
3134;DHT22;1577;49.912;10.924;2023-12-28T06:30:33;7.50;99.90
3134;DHT22;1577;49.912;10.924;2023-12-28T06:32:59;7.50;99.90
3134;DHT22;1577;49.912;10.924;2023-12-28T06:35:24;7.60;99.90
3134;DHT22;1577;49.912;10.924;2023-12-28T06:37:50;7.60;99.90
3134;DHT22;1577;49.912;10.924;2023-12-28T06:40:16;7.60;99.90
3134;DHT22;1577;49.912;10.924;2023-12-28T06:42:41;7.60;99.90
3134;DHT22;1577;49.912;10.924;2023-12-28T06:45:09;7.60;99.90
3134;DHT22;1577;49.912;10.924;2023-12-28T06:47:34;7.60;99.90
3134;DHT22;1577;49.912;10.924;2023-12-28T06:50:00;7.60;99.90
3134;DHT22;1577;49.912;10.924;2023-12-28T06:52:26;7.60;99.90
3134;DHT22;1577;49.912;10.924;2023-12-28T06:54:51;7.60;99.90
3134;DHT22;1577;49.912;10.924;2023-12-28T06:57:18;7.50;99.90
3134;DHT22;1577;49.912;10.924;2023-12-28T06:59:44;7.60;99.90
3134;DHT22;1577;49.912;10.924;2023-12-28T07:02:09;7.60;99.90
3134;DHT22;1577;49.912;10.924;2023-12-28T07:04:35;7.60;99.90
3134;DHT22;1577;49.912;10.924;2023-12-28T07:07:00;7.60;99.90
3134;DHT22;1577;49.912;10.924;2023-12-28T07:09:26;7.60;99.90
3134;DHT22;1577;49.912;10.924;2023-12-28T07:11:52;7.60;99.90
3134;DHT22;1577;49.912;10.924;2023-12-28T07:14:17;7.50;99.90
3134;DHT22;1577;49.912;10.924;2023-12-28T07:16:43;7.60;99.90
3134;DHT22;1577;49.912;10.924;2023-12-28T07:19:08;7.70;99.90
3134;DHT22;1577;49.912;10.924;2023-12-28T07:21:34;7.70;99.90
3134;DHT22;1577;49.912;10.924;2023-12-28T07:23:59;7.70;99.90
3134;DHT22;1577;49.912;10.924;2023-12-28T07:26:25;7.80;99.90
3134;DHT22;1577;49.912;10.924;2023-12-28T07:28:50;7.80;99.90
3134;DHT22;1577;49.912;10.924;2023-12-28T07:31:26;7.90;99.90
3134;DHT22;1577;49.912;10.924;2023-12-28T07:33:52;7.90;99.90
3134;DHT22;1577;49.912;10.924;2023-12-28T07:36:19;8.00;99.90
3134;DHT22;1577;49.912;10.924;2023-12-28T07:38:45;8.00;99.90
3134;DHT22;1577;49.912;10.924;2023-12-28T07:41:10;8.00;99.90
3134;DHT22;1577;49.912;10.924;2023-12-28T07:43:36;8.10;99.90
3134;DHT22;1577;49.912;10.924;2023-12-28T07:46:02;8.10;99.90
3134;DHT22;1577;49.912;10.924;2023-12-28T07:48:28;8.20;99.90
3134;DHT22;1577;49.912;10.924;2023-12-28T07:50:56;8.20;99.90
3134;DHT22;1577;49.912;10.924;2023-12-28T07:53:21;8.30;99.90
3134;DHT22;1577;49.912;10.924;2023-12-28T07:55:47;8.30;99.90
3134;DHT22;1577;49.912;10.924;2023-12-28T07:58:13;8.30;99.90
3134;DHT22;1577;49.912;10.924;2023-12-28T08:00:38;8.40;99.90
3134;DHT22;1577;49.912;10.924;2023-12-28T08:03:04;8.40;99.90
3134;DHT22;1577;49.912;10.924;2023-12-28T08:05:29;8.40;99.90
3134;DHT22;1577;49.912;10.924;2023-12-28T08:07:55;8.40;99.90
3134;DHT22;1577;49.912;10.924;2023-12-28T08:10:21;8.40;99.90
3134;DHT22;1577;49.912;10.924;2023-12-28T08:12:46;8.40;99.90
3134;DHT22;1577;49.912;10.924;2023-12-28T08:15:12;8.40;99.90
3134;DHT22;1577;49.912;10.924;2023-12-28T08:17:37;8.50;99.90
3134;DHT22;1577;49.912;10.924;2023-12-28T08:20:04;8.60;99.90
3134;DHT22;1577;49.912;10.924;2023-12-28T08:22:30;8.70;99.90
3134;DHT22;1577;49.912;10.924;2023-12-28T08:24:56;8.70;99.90
3134;DHT22;1577;49.912;10.924;2023-12-28T08:27:23;8.90;99.90
3134;DHT22;1577;49.912;10.924;2023-12-28T08:29:48;8.90;99.90
3134;DHT22;1577;49.912;10.924;2023-12-28T08:32:14;9.00;99.90
3134;DHT22;1577;49.912;10.924;2023-12-28T08:34:39;9.00;99.90
3134;DHT22;1577;49.912;10.924;2023-12-28T08:37:05;9.00;99.90
3134;DHT22;1577;49.912;10.924;2023-12-28T08:39:31;9.10;99.90
3134;DHT22;1577;49.912;10.924;2023-12-28T08:41:57;9.10;99.90
3134;DHT22;1577;49.912;10.924;2023-12-28T08:44:22;9.10;99.90
3134;DHT22;1577;49.912;10.924;2023-12-28T08:46:48;9.20;99.90
3134;DHT22;1577;49.912;10.924;2023-12-28T08:49:13;9.10;99.90
3134;DHT22;1577;49.912;10.924;2023-12-28T08:51:41;9.20;99.90
3134;DHT22;1577;49.912;10.924;2023-12-28T08:54:07;9.20;99.90
3134;DHT22;1577;49.912;10.924;2023-12-28T08:56:33;9.20;99.90
3134;DHT22;1577;49.912;10.924;2023-12-28T08:58:59;9.20;99.90
3134;DHT22;1577;49.912;10.924;2023-12-28T09:01:24;9.30;99.90
3134;DHT22;1577;49.912;10.924;2023-12-28T09:03:54;9.30;99.90
3134;DHT22;1577;49.912;10.924;2023-12-28T09:06:20;9.40;99.90
3134;DHT22;1577;49.912;10.924;2023-12-28T09:08:49;9.40;99.90
3134;DHT22;1577;49.912;10.924;2023-12-28T09:11:16;9.40;99.90
3134;DHT22;1577;49.912;10.924;2023-12-28T09:13:41;9.50;99.90
3134;DHT22;1577;49.912;10.924;2023-12-28T09:16:11;9.40;99.90
3134;DHT22;1577;49.912;10.924;2023-12-28T09:18:38;9.50;99.90
3134;DHT22;1577;49.912;10.924;2023-12-28T09:21:08;9.50;99.90
3134;DHT22;1577;49.912;10.924;2023-12-28T09:23:34;9.50;99.90
3134;DHT22;1577;49.912;10.924;2023-12-28T09:26:01;9.50;99.90
3134;DHT22;1577;49.912;10.924;2023-12-28T09:28:27;9.50;99.90
3134;DHT22;1577;49.912;10.924;2023-12-28T09:30:52;9.50;99.90
3134;DHT22;1577;49.912;10.924;2023-12-28T09:33:18;9.50;99.90
3134;DHT22;1577;49.912;10.924;2023-12-28T09:35:43;9.60;99.90
3134;DHT22;1577;49.912;10.924;2023-12-28T09:38:09;9.60;99.90
3134;DHT22;1577;49.912;10.924;2023-12-28T09:40:38;9.50;99.90
3134;DHT22;1577;49.912;10.924;2023-12-28T09:43:25;9.50;99.90
3134;DHT22;1577;49.912;10.924;2023-12-28T09:45:52;9.50;99.90
3134;DHT22;1577;49.912;10.924;2023-12-28T09:48:18;9.60;99.90
3134;DHT22;1577;49.912;10.924;2023-12-28T09:50:48;9.60;99.90
3134;DHT22;1577;49.912;10.924;2023-12-28T09:53:14;9.60;99.90
3134;DHT22;1577;49.912;10.924;2023-12-28T09:55:40;9.70;99.90
3134;DHT22;1577;49.912;10.924;2023-12-28T09:58:05;9.70;99.90
3134;DHT22;1577;49.912;10.924;2023-12-28T10:00:32;9.70;99.90
3134;DHT22;1577;49.912;10.924;2023-12-28T10:02:58;9.70;99.90
3134;DHT22;1577;49.912;10.924;2023-12-28T10:05:23;9.80;99.90
3134;DHT22;1577;49.912;10.924;2023-12-28T10:07:50;9.70;99.90
3134;DHT22;1577;49.912;10.924;2023-12-28T10:10:16;9.70;99.90
3134;DHT22;1577;49.912;10.924;2023-12-28T10:12:42;9.80;99.90
3134;DHT22;1577;49.912;10.924;2023-12-28T10:15:08;9.80;99.90
3134;DHT22;1577;49.912;10.924;2023-12-28T10:17:35;9.80;99.90
3134;DHT22;1577;49.912;10.924;2023-12-28T10:20:04;9.80;99.90
3134;DHT22;1577;49.912;10.924;2023-12-28T10:22:33;9.80;99.90
3134;DHT22;1577;49.912;10.924;2023-12-28T10:24:59;9.80;99.90
3134;DHT22;1577;49.912;10.924;2023-12-28T10:27:26;9.80;99.90
3134;DHT22;1577;49.912;10.924;2023-12-28T10:29:56;9.80;99.90
3134;DHT22;1577;49.912;10.924;2023-12-28T10:32:22;9.80;99.90
3134;DHT22;1577;49.912;10.924;2023-12-28T10:34:54;9.80;99.90
3134;DHT22;1577;49.912;10.924;2023-12-28T10:37:21;9.90;99.90
3134;DHT22;1577;49.912;10.924;2023-12-28T10:39:48;9.80;99.90
3134;DHT22;1577;49.912;10.924;2023-12-28T10:42:46;9.80;99.90
3134;DHT22;1577;49.912;10.924;2023-12-28T10:45:10;9.80;99.90
3134;DHT22;1577;49.912;10.924;2023-12-28T10:47:43;9.80;99.90
3134;DHT22;1577;49.912;10.924;2023-12-28T10:50:11;9.80;99.90
3134;DHT22;1577;49.912;10.924;2023-12-28T10:52:37;9.80;99.90
3134;DHT22;1577;49.912;10.924;2023-12-28T10:55:27;9.80;99.90
3134;DHT22;1577;49.912;10.924;2023-12-28T11:00:24;9.90;99.90
3134;DHT22;1577;49.912;10.924;2023-12-28T11:02:52;9.80;99.90
3134;DHT22;1577;49.912;10.924;2023-12-28T11:05:20;9.80;99.90
3134;DHT22;1577;49.912;10.924;2023-12-28T11:07:47;9.80;99.90
3134;DHT22;1577;49.912;10.924;2023-12-28T11:10:14;9.90;99.90
3134;DHT22;1577;49.912;10.924;2023-12-28T11:12:39;9.90;99.90
3134;DHT22;1577;49.912;10.924;2023-12-28T11:15:06;9.90;99.90
3134;DHT22;1577;49.912;10.924;2023-12-28T11:17:35;9.90;99.90
3134;DHT22;1577;49.912;10.924;2023-12-28T11:20:03;9.90;99.90
3134;DHT22;1577;49.912;10.924;2023-12-28T11:22:31;9.80;99.90
3134;DHT22;1577;49.912;10.924;2023-12-28T11:24:56;9.90;99.90
3134;DHT22;1577;49.912;10.924;2023-12-28T11:27:22;9.80;99.90
3134;DHT22;1577;49.912;10.924;2023-12-28T11:29:49;9.90;99.90
3134;DHT22;1577;49.912;10.924;2023-12-28T11:32:14;10.00;99.90
3134;DHT22;1577;49.912;10.924;2023-12-28T11:34:40;10.00;99.90
3134;DHT22;1577;49.912;10.924;2023-12-28T11:37:17;10.00;99.90
3134;DHT22;1577;49.912;10.924;2023-12-28T11:39:45;9.90;99.90
3134;DHT22;1577;49.912;10.924;2023-12-28T11:42:19;9.90;99.90
3134;DHT22;1577;49.912;10.924;2023-12-28T11:44:45;9.90;99.90
3134;DHT22;1577;49.912;10.924;2023-12-28T11:47:21;9.90;99.90
3134;DHT22;1577;49.912;10.924;2023-12-28T11:49:48;9.90;99.90
3134;DHT22;1577;49.912;10.924;2023-12-28T11:52:30;10.00;99.90
3134;DHT22;1577;49.912;10.924;2023-12-28T11:54:57;9.90;99.90
3134;DHT22;1577;49.912;10.924;2023-12-28T11:57:23;9.90;99.90
3134;DHT22;1577;49.912;10.924;2023-12-28T11:59:54;10.00;99.90
3134;DHT22;1577;49.912;10.924;2023-12-28T12:02:20;10.10;99.90
3134;DHT22;1577;49.912;10.924;2023-12-28T12:04:46;10.10;99.90
3134;DHT22;1577;49.912;10.924;2023-12-28T12:07:12;10.10;99.90
3134;DHT22;1577;49.912;10.924;2023-12-28T12:09:37;10.10;99.90
3134;DHT22;1577;49.912;10.924;2023-12-28T12:12:04;10.10;99.90
3134;DHT22;1577;49.912;10.924;2023-12-28T12:14:30;10.20;99.90
3134;DHT22;1577;49.912;10.924;2023-12-28T12:16:57;10.20;99.90
3134;DHT22;1577;49.912;10.924;2023-12-28T12:19:24;10.10;99.90
3134;DHT22;1577;49.912;10.924;2023-12-28T12:21:52;10.20;99.90
3134;DHT22;1577;49.912;10.924;2023-12-28T12:24:18;10.20;99.90
3134;DHT22;1577;49.912;10.924;2023-12-28T12:26:45;10.20;99.90
3134;DHT22;1577;49.912;10.924;2023-12-28T12:29:11;10.20;99.90
3134;DHT22;1577;49.912;10.924;2023-12-28T12:31:37;10.20;99.90
3134;DHT22;1577;49.912;10.924;2023-12-28T12:34:15;10.20;99.90
3134;DHT22;1577;49.912;10.924;2023-12-28T12:36:41;10.20;99.90
3134;DHT22;1577;49.912;10.924;2023-12-28T12:39:07;10.30;99.90
3134;DHT22;1577;49.912;10.924;2023-12-28T12:41:34;10.30;99.90
3134;DHT22;1577;49.912;10.924;2023-12-28T12:43:59;10.30;99.90
3134;DHT22;1577;49.912;10.924;2023-12-28T12:46:26;10.30;99.90
3134;DHT22;1577;49.912;10.924;2023-12-28T12:48:56;10.30;99.90
3134;DHT22;1577;49.912;10.924;2023-12-28T12:51:22;10.30;99.90
3134;DHT22;1577;49.912;10.924;2023-12-28T12:53:47;10.40;99.90
3134;DHT22;1577;49.912;10.924;2023-12-28T12:56:13;10.30;99.90
3134;DHT22;1577;49.912;10.924;2023-12-28T12:58:39;10.40;99.90
3134;DHT22;1577;49.912;10.924;2023-12-28T13:01:04;10.40;99.90
3134;DHT22;1577;49.912;10.924;2023-12-28T13:03:30;10.40;99.90
3134;DHT22;1577;49.912;10.924;2023-12-28T13:05:56;10.40;99.90
3134;DHT22;1577;49.912;10.924;2023-12-28T13:08:22;10.40;99.90
3134;DHT22;1577;49.912;10.924;2023-12-28T13:10:47;10.30;99.90
3134;DHT22;1577;49.912;10.924;2023-12-28T13:13:15;10.30;99.90
3134;DHT22;1577;49.912;10.924;2023-12-28T13:15:41;10.20;99.90
3134;DHT22;1577;49.912;10.924;2023-12-28T13:18:06;10.20;99.90
3134;DHT22;1577;49.912;10.924;2023-12-28T13:20:32;10.30;99.90
3134;DHT22;1577;49.912;10.924;2023-12-28T13:22:57;10.30;99.90
3134;DHT22;1577;49.912;10.924;2023-12-28T13:25:23;10.30;99.90
3134;DHT22;1577;49.912;10.924;2023-12-28T13:27:49;10.30;99.90
3134;DHT22;1577;49.912;10.924;2023-12-28T13:30:14;10.30;99.90
3134;DHT22;1577;49.912;10.924;2023-12-28T13:32:40;10.30;99.90
3134;DHT22;1577;49.912;10.924;2023-12-28T13:35:05;10.30;99.90
3134;DHT22;1577;49.912;10.924;2023-12-28T13:37:32;10.40;99.90
3134;DHT22;1577;49.912;10.924;2023-12-28T13:39:57;10.40;99.90
3134;DHT22;1577;49.912;10.924;2023-12-28T13:42:23;10.40;99.90
3134;DHT22;1577;49.912;10.924;2023-12-28T13:44:48;10.40;99.90
3134;DHT22;1577;49.912;10.924;2023-12-28T13:47:14;10.40;99.90
3134;DHT22;1577;49.912;10.924;2023-12-28T13:49:40;10.40;99.90
3134;DHT22;1577;49.912;10.924;2023-12-28T13:52:05;10.40;99.90
3134;DHT22;1577;49.912;10.924;2023-12-28T13:54:31;10.40;99.90
3134;DHT22;1577;49.912;10.924;2023-12-28T13:56:56;10.40;99.90
3134;DHT22;1577;49.912;10.924;2023-12-28T13:59:24;10.40;99.90
3134;DHT22;1577;49.912;10.924;2023-12-28T14:01:49;10.50;99.90
3134;DHT22;1577;49.912;10.924;2023-12-28T14:04:15;10.50;99.90
3134;DHT22;1577;49.912;10.924;2023-12-28T14:06:41;10.50;99.90
3134;DHT22;1577;49.912;10.924;2023-12-28T14:09:06;10.40;99.90
3134;DHT22;1577;49.912;10.924;2023-12-28T14:11:33;10.40;99.90
3134;DHT22;1577;49.912;10.924;2023-12-28T14:13:59;10.50;99.90
3134;DHT22;1577;49.912;10.924;2023-12-28T14:16:25;10.40;99.90
3134;DHT22;1577;49.912;10.924;2023-12-28T14:18:50;10.50;99.90
3134;DHT22;1577;49.912;10.924;2023-12-28T14:21:18;10.40;99.90
3134;DHT22;1577;49.912;10.924;2023-12-28T14:23:44;10.50;99.90
3134;DHT22;1577;49.912;10.924;2023-12-28T14:26:14;10.50;99.90
3134;DHT22;1577;49.912;10.924;2023-12-28T14:28:43;10.40;99.90
3134;DHT22;1577;49.912;10.924;2023-12-28T14:31:10;10.30;99.90
3134;DHT22;1577;49.912;10.924;2023-12-28T14:33:37;10.30;99.90
3134;DHT22;1577;49.912;10.924;2023-12-28T14:36:06;10.20;99.90
3134;DHT22;1577;49.912;10.924;2023-12-28T14:38:34;10.20;99.90
3134;DHT22;1577;49.912;10.924;2023-12-28T14:41:00;10.20;99.90
3134;DHT22;1577;49.912;10.924;2023-12-28T14:43:25;10.20;99.90
3134;DHT22;1577;49.912;10.924;2023-12-28T14:45:51;10.20;99.90
3134;DHT22;1577;49.912;10.924;2023-12-28T14:48:18;10.10;99.90
3134;DHT22;1577;49.912;10.924;2023-12-28T14:50:44;10.20;99.90
3134;DHT22;1577;49.912;10.924;2023-12-28T14:53:09;10.20;99.90
3134;DHT22;1577;49.912;10.924;2023-12-28T14:55:35;10.10;99.90
3134;DHT22;1577;49.912;10.924;2023-12-28T14:58:01;10.10;99.90
3134;DHT22;1577;49.912;10.924;2023-12-28T15:00:27;10.10;99.90
3134;DHT22;1577;49.912;10.924;2023-12-28T15:02:53;10.10;99.90
3134;DHT22;1577;49.912;10.924;2023-12-28T15:05:18;10.10;99.90
3134;DHT22;1577;49.912;10.924;2023-12-28T15:07:44;10.10;99.90
3134;DHT22;1577;49.912;10.924;2023-12-28T15:10:10;10.10;99.90
3134;DHT22;1577;49.912;10.924;2023-12-28T15:12:36;10.10;99.90
3134;DHT22;1577;49.912;10.924;2023-12-28T15:15:02;10.20;99.90
3134;DHT22;1577;49.912;10.924;2023-12-28T15:17:28;10.20;99.90
3134;DHT22;1577;49.912;10.924;2023-12-28T15:19:54;10.00;99.90
3134;DHT22;1577;49.912;10.924;2023-12-28T15:22:20;10.00;99.90
3134;DHT22;1577;49.912;10.924;2023-12-28T15:24:45;10.00;99.90
3134;DHT22;1577;49.912;10.924;2023-12-28T15:27:11;10.00;99.90
3134;DHT22;1577;49.912;10.924;2023-12-28T15:29:38;10.00;99.90
3134;DHT22;1577;49.912;10.924;2023-12-28T15:32:03;10.00;99.90
3134;DHT22;1577;49.912;10.924;2023-12-28T15:34:29;10.10;99.90
3134;DHT22;1577;49.912;10.924;2023-12-28T15:36:55;10.00;99.90
3134;DHT22;1577;49.912;10.924;2023-12-28T15:39:20;10.10;99.90
3134;DHT22;1577;49.912;10.924;2023-12-28T15:41:46;10.00;99.90
3134;DHT22;1577;49.912;10.924;2023-12-28T15:44:12;10.00;99.90
3134;DHT22;1577;49.912;10.924;2023-12-28T15:46:39;10.00;99.90
3134;DHT22;1577;49.912;10.924;2023-12-28T15:49:05;9.90;99.90
3134;DHT22;1577;49.912;10.924;2023-12-28T15:51:31;9.90;99.90
3134;DHT22;1577;49.912;10.924;2023-12-28T15:53:56;10.00;99.90